Time;durP1;ratioP1;P1;durP2;ratioP2;P2;SDS_P1;SDS_P2;PMS_P1;PMS_P2;Temp;Humidity;BMP_temperature;BMP_pressure;BME280_temperature;BME280_humidity;BME280_pressure;Samples;Min_cycle;Max_cycle;Signal;HPM_P1;HPM_P2
2023/08/18 00:00:56;;;;;;;7.70;5.70;;;;;;;29.51;38.48;100758.37;108148;1279;21987;-69
2023/08/18 00:03:22;;;;;;;8.00;6.10;;;;;;;29.49;38.45;100756.71;108166;1284;21985;-60
2023/08/18 00:05:47;;;;;;;9.20;4.80;;;;;;;29.50;38.53;100754.63;108153;1276;21982;-59
2023/08/18 00:08:13;;;;;;;6.90;5.30;;;;;;;29.51;38.54;100756.00;108135;1284;21987;-70
2023/08/18 00:10:38;;;;;;;6.00;4.70;;;;;;;29.49;38.46;100757.59;108166;1283;21987;-68
2023/08/18 00:13:04;;;;;;;8.40;5.10;;;;;;;29.49;38.53;100757.23;108181;1280;21994;-57
2023/08/18 00:15:29;;;;;;;6.60;5.00;;;;;;;29.50;38.63;100755.03;108257;1276;21989;-57
2023/08/18 00:17:55;;;;;;;7.70;4.70;;;;;;;29.49;38.54;100755.09;108200;1276;21983;-68
2023/08/18 00:20:21;;;;;;;12.60;5.40;;;;;;;29.51;38.34;100752.20;108215;1283;22004;-58
2023/08/18 00:22:46;;;;;;;5.80;4.80;;;;;;;29.52;38.52;100753.73;108203;1284;21982;-57
2023/08/18 00:25:12;;;;;;;5.90;4.80;;;;;;;29.52;38.56;100755.77;108141;1279;21991;-57
2023/08/18 00:27:37;;;;;;;6.10;4.70;;;;;;;29.52;38.67;100756.83;108139;1276;21983;-69
2023/08/18 00:30:05;;;;;;;8.70;4.90;;;;;;;29.53;38.61;100759.84;108142;1285;21992;-66
2023/08/18 00:32:31;;;;;;;7.90;4.70;;;;;;;29.53;38.32;100757.13;108198;1283;21986;-68
2023/08/18 00:34:57;;;;;;;7.90;4.80;;;;;;;29.53;38.34;100759.48;108177;1272;23072;-69
2023/08/18 00:37:22;;;;;;;6.80;4.90;;;;;;;29.53;38.57;100760.36;108185;1283;21989;-58
2023/08/18 00:39:48;;;;;;;7.90;5.10;;;;;;;29.52;38.64;100761.49;108193;1279;21959;-69
2023/08/18 00:42:13;;;;;;;5.40;4.50;;;;;;;29.51;38.52;100762.48;108207;1283;22024;-58
2023/08/18 00:44:39;;;;;;;6.60;4.70;;;;;;;29.48;38.69;100767.86;108267;1283;21989;-69
2023/08/18 00:47:04;;;;;;;6.70;4.90;;;;;;;29.49;38.57;100767.05;108249;1284;22022;-58
2023/08/18 00:49:30;;;;;;;5.60;4.30;;;;;;;29.49;38.74;100767.95;108175;1282;21988;-69
2023/08/18 00:51:56;;;;;;;7.50;4.40;;;;;;;29.44;38.85;100772.54;108133;1285;21985;-69
2023/08/18 00:54:21;;;;;;;8.50;4.30;;;;;;;29.37;38.91;100775.08;108130;1284;21994;-68
2023/08/18 00:56:47;;;;;;;9.10;4.50;;;;;;;29.31;39.09;100775.25;108150;1279;21991;-69
2023/08/18 00:59:13;;;;;;;6.60;4.40;;;;;;;29.23;38.86;100776.41;108223;1283;21986;-68
2023/08/18 01:01:40;;;;;;;9.40;4.90;;;;;;;29.17;39.23;100776.96;108197;1283;22019;-58
2023/08/18 01:04:06;;;;;;;7.90;4.50;;;;;;;29.11;39.32;100773.64;108245;1277;23685;-58
2023/08/18 01:06:32;;;;;;;5.60;4.30;;;;;;;29.08;39.14;100775.23;108242;1283;22021;-68
2023/08/18 01:08:57;;;;;;;7.10;4.40;;;;;;;29.05;39.37;100775.44;108188;1280;21984;-68
2023/08/18 01:11:42;;;;;;;7.10;4.40;;;;;;;29.01;39.47;100771.42;108122;1279;21991;-58
2023/08/18 01:14:14;;;;;;;8.60;4.50;;;;;;;28.95;39.49;100774.98;104228;1284;5442369;-58
2023/08/18 01:16:39;;;;;;;7.90;4.30;;;;;;;28.87;39.60;100776.19;108169;1279;21975;-59
2023/08/18 01:19:05;;;;;;;5.30;4.40;;;;;;;28.84;39.64;100776.27;108154;1282;21990;-69
2023/08/18 01:21:30;;;;;;;5.80;5.10;;;;;;;28.82;39.46;100776.61;108177;1285;21997;-57
2023/08/18 01:24:01;;;;;;;7.00;4.50;;;;;;;28.76;39.83;100781.23;108174;1279;22955;-58
2023/08/18 01:26:26;;;;;;;5.60;4.30;;;;;;;28.72;39.74;100783.19;108193;1283;23042;-58
2023/08/18 01:28:52;;;;;;;9.90;4.80;;;;;;;28.66;39.68;100778.83;108218;1283;21984;-68
2023/08/18 01:31:24;;;;;;;8.50;4.60;;;;;;;28.60;39.75;100777.69;108106;1283;21989;-68
2023/08/18 01:34:02;;;;;;;8.00;4.50;;;;;;;28.54;40.04;100777.22;108213;1271;23775;-60
2023/08/18 01:36:29;;;;;;;7.30;4.00;;;;;;;28.48;40.13;100775.00;108196;1283;22011;-68
2023/08/18 01:38:55;;;;;;;5.60;4.20;;;;;;;28.42;40.18;100772.06;108263;1279;21986;-68
2023/08/18 01:41:24;;;;;;;6.40;4.10;;;;;;;28.38;40.20;100774.06;108204;1279;21988;-68
2023/08/18 01:43:50;;;;;;;9.40;4.40;;;;;;;28.29;40.44;100775.11;108122;1276;21994;-57
2023/08/18 01:46:16;;;;;;;6.50;4.80;;;;;;;28.20;40.54;100776.72;108211;1283;21989;-57
2023/08/18 01:48:41;;;;;;;7.90;4.40;;;;;;;28.15;40.85;100772.12;108277;1283;21991;-69
2023/08/18 01:51:07;;;;;;;6.10;4.10;;;;;;;28.10;40.86;100768.17;108239;1283;21987;-58
2023/08/18 01:53:32;;;;;;;6.30;4.30;;;;;;;28.03;41.02;100767.78;108185;1283;22029;-58
2023/08/18 01:56:02;;;;;;;7.60;4.30;;;;;;;27.97;41.29;100768.42;108184;1278;21963;-59
2023/08/18 01:58:28;;;;;;;7.30;4.00;;;;;;;27.94;41.30;100770.67;108255;1283;23768;-57
2023/08/18 02:00:57;;;;;;;8.70;4.00;;;;;;;27.93;41.36;100770.77;108236;1281;22375;-62
2023/08/18 02:03:26;;;;;;;6.20;3.80;;;;;;;27.91;41.37;100766.23;108180;1283;22071;-58
2023/08/18 02:05:56;;;;;;;7.10;3.80;;;;;;;27.91;41.47;100769.30;108205;1283;21988;-57
2023/08/18 02:08:21;;;;;;;5.00;3.70;;;;;;;27.91;41.63;100770.38;108245;1280;21997;-69
2023/08/18 02:10:47;;;;;;;9.20;4.30;;;;;;;27.90;41.66;100770.46;108258;1282;21998;-57
2023/08/18 02:13:13;;;;;;;7.00;4.10;;;;;;;27.90;41.64;100770.63;108241;1280;22024;-57
2023/08/18 02:15:38;;;;;;;7.70;4.40;;;;;;;27.90;41.65;100771.17;108272;1283;21987;-58
2023/08/18 02:18:04;;;;;;;7.50;3.70;;;;;;;27.88;41.72;100773.08;108268;1274;21991;-68
2023/08/18 02:20:30;;;;;;;5.10;3.70;;;;;;;27.85;41.75;100772.05;108236;1276;22240;-58
2023/08/18 02:22:56;;;;;;;5.80;4.30;;;;;;;27.83;41.84;100772.64;108184;1281;22050;-57
2023/08/18 02:25:22;;;;;;;6.00;3.80;;;;;;;27.80;41.95;100775.05;108293;1279;22050;-58
2023/08/18 02:27:49;;;;;;;12.50;4.10;;;;;;;27.76;41.81;100775.71;108140;1280;21987;-69
2023/08/18 02:30:14;;;;;;;6.70;3.50;;;;;;;27.74;41.91;100774.73;108285;1285;21986;-57
2023/08/18 02:32:40;;;;;;;6.40;3.80;;;;;;;27.71;41.88;100773.89;108231;1279;21999;-57
2023/08/18 02:35:06;;;;;;;5.00;4.00;;;;;;;27.69;41.90;100772.62;108183;1283;22007;-57
2023/08/18 02:37:31;;;;;;;14.60;4.30;;;;;;;27.66;41.99;100776.82;108239;1279;21998;-68
2023/08/18 02:39:57;;;;;;;6.30;4.30;;;;;;;27.65;41.95;100774.23;108242;1283;21995;-58
2023/08/18 02:42:23;;;;;;;7.40;4.70;;;;;;;27.61;42.06;100775.39;108202;1284;21993;-57
2023/08/18 02:44:49;;;;;;;6.70;4.30;;;;;;;27.59;41.94;100774.63;108155;1280;21999;-58
2023/08/18 02:47:16;;;;;;;8.90;4.10;;;;;;;27.54;42.10;100770.70;108177;1283;23501;-69
2023/08/18 02:49:42;;;;;;;10.00;4.40;;;;;;;27.48;42.25;100773.52;108195;1279;21991;-68
2023/08/18 02:52:09;;;;;;;14.40;4.60;;;;;;;27.44;42.27;100775.74;108178;1284;21988;-57
2023/08/18 02:54:34;;;;;;;7.70;3.90;;;;;;;27.38;42.34;100776.42;108159;1279;22033;-57
2023/08/18 02:57:00;;;;;;;7.30;4.00;;;;;;;27.33;42.49;100776.98;108144;1284;21988;-69
2023/08/18 02:59:26;;;;;;;8.00;4.10;;;;;;;27.30;42.61;100773.83;108140;1278;21994;-69
2023/08/18 03:01:52;;;;;;;5.90;3.90;;;;;;;27.27;42.63;100775.80;108242;1280;21988;-58
2023/08/18 03:04:18;;;;;;;5.80;4.10;;;;;;;27.24;42.74;100780.17;108094;1284;21988;-58
2023/08/18 03:06:43;;;;;;;9.30;5.00;;;;;;;27.20;42.72;100778.15;108144;1284;21983;-58
2023/08/18 03:09:09;;;;;;;10.40;4.40;;;;;;;27.16;42.95;100779.55;108170;1280;21987;-58
2023/08/18 03:11:34;;;;;;;6.40;4.10;;;;;;;27.12;43.03;100782.35;108181;1279;22020;-58
2023/08/18 03:14:00;;;;;;;5.90;3.90;;;;;;;27.10;43.07;100782.35;108164;1276;22030;-58
2023/08/18 03:16:25;;;;;;;9.70;3.80;;;;;;;27.08;43.09;100779.30;108155;1280;21985;-69
2023/08/18 03:18:51;;;;;;;6.30;3.90;;;;;;;27.07;43.19;100780.73;108173;1284;21986;-70
2023/08/18 03:21:17;;;;;;;6.10;4.20;;;;;;;27.03;43.48;100779.08;108242;1279;21989;-69
2023/08/18 03:23:42;;;;;;;10.00;4.20;;;;;;;27.05;43.40;100779.45;108311;1278;22002;-69
2023/08/18 03:26:08;;;;;;;6.60;4.00;;;;;;;27.06;43.48;100779.76;108256;1284;21986;-59
2023/08/18 03:28:35;;;;;;;7.80;3.90;;;;;;;27.06;43.57;100777.43;108193;1277;21986;-59
2023/08/18 03:31:02;;;;;;;7.70;4.10;;;;;;;27.05;43.66;100773.55;108272;1271;21987;-70
2023/08/18 03:33:28;;;;;;;10.40;3.40;;;;;;;27.05;43.70;100776.95;108182;1283;21991;-59
2023/08/18 03:35:54;;;;;;;8.50;3.90;;;;;;;27.07;43.86;100775.18;108218;1277;21993;-58
2023/08/18 03:38:21;;;;;;;7.70;3.80;;;;;;;27.09;43.79;100773.80;108273;1280;22058;-64
2023/08/18 03:40:48;;;;;;;9.90;3.90;;;;;;;27.12;43.82;100769.59;108244;1284;21986;-70
2023/08/18 03:43:13;;;;;;;10.80;4.10;;;;;;;27.15;43.84;100768.64;108296;1284;22039;-71
2023/08/18 03:45:39;;;;;;;14.30;4.20;;;;;;;27.15;43.89;100768.42;108255;1277;21964;-61
2023/08/18 03:48:05;;;;;;;9.10;4.60;;;;;;;27.12;44.06;100767.03;108146;1284;21963;-66
2023/08/18 03:50:31;;;;;;;9.20;4.20;;;;;;;27.12;44.18;100765.92;108216;1284;21990;-71
2023/08/18 03:52:57;;;;;;;7.70;4.20;;;;;;;27.14;44.27;100768.52;108209;1274;21997;-70
2023/08/18 03:55:23;;;;;;;10.80;4.30;;;;;;;27.14;44.40;100767.95;108242;1283;21977;-70
2023/08/18 03:57:49;;;;;;;8.10;4.40;;;;;;;27.14;44.59;100772.12;108143;1283;21986;-59
2023/08/18 04:00:14;;;;;;;5.50;3.50;;;;;;;27.17;44.54;100774.22;108240;1280;21983;-69
2023/08/18 04:02:40;;;;;;;7.00;3.90;;;;;;;27.22;44.79;100772.59;108171;1283;22024;-59
2023/08/18 04:05:06;;;;;;;8.40;4.10;;;;;;;27.27;44.74;100769.67;108164;1279;22026;-69
2023/08/18 04:07:31;;;;;;;9.40;4.10;;;;;;;27.32;44.80;100769.85;108227;1281;21990;-70
2023/08/18 04:09:57;;;;;;;7.70;3.90;;;;;;;27.37;44.91;100773.79;108201;1283;21984;-69
2023/08/18 04:12:23;;;;;;;9.30;4.00;;;;;;;27.41;44.95;100774.53;108206;1279;21993;-59
2023/08/18 04:14:49;;;;;;;10.10;4.30;;;;;;;27.46;44.96;100773.98;108299;1283;21992;-71
2023/08/18 04:17:14;;;;;;;10.90;4.10;;;;;;;27.54;44.66;100776.70;108215;1283;21990;-71
2023/08/18 04:19:40;;;;;;;9.10;4.50;;;;;;;27.63;44.73;100780.14;108180;1276;24321;-58
2023/08/18 04:22:05;;;;;;;11.70;5.00;;;;;;;27.72;44.67;100781.42;108152;1283;21985;-58
2023/08/18 04:24:31;;;;;;;7.70;3.90;;;;;;;27.82;44.76;100781.17;108213;1275;21995;-60
2023/08/18 04:26:59;;;;;;;12.10;4.30;;;;;;;27.91;44.72;100777.25;108226;1283;22447;-58
2023/08/18 04:29:28;;;;;;;11.00;4.80;;;;;;;27.99;44.70;100781.44;108248;1280;22094;-67
2023/08/18 04:31:54;;;;;;;9.20;4.10;;;;;;;28.08;44.70;100781.48;108183;1283;21998;-68
2023/08/18 04:34:20;;;;;;;23.20;5.50;;;;;;;28.17;44.52;100781.50;108221;1278;21987;-68
2023/08/18 04:36:45;;;;;;;9.00;4.20;;;;;;;28.26;44.57;100782.60;108227;1283;21975;-56
2023/08/18 04:39:11;;;;;;;12.70;4.80;;;;;;;28.34;44.43;100781.52;108193;1283;21983;-56
2023/08/18 04:41:37;;;;;;;7.90;4.20;;;;;;;28.43;44.30;100783.74;108248;1278;21978;-56
2023/08/18 04:44:03;;;;;;;10.80;5.20;;;;;;;28.51;44.30;100782.01;108178;1280;21993;-56
2023/08/18 04:46:30;;;;;;;9.20;3.90;;;;;;;28.59;44.17;100785.29;108220;1283;22001;-68
2023/08/18 04:48:56;;;;;;;8.50;4.10;;;;;;;28.68;44.24;100791.98;108277;1281;22164;-57
2023/08/18 04:51:22;;;;;;;8.30;4.80;;;;;;;28.77;44.18;100798.14;108233;1283;22082;-58
2023/08/18 04:53:48;;;;;;;13.70;4.30;;;;;;;28.86;44.17;100793.56;108202;1283;22029;-69
2023/08/18 04:56:13;;;;;;;9.20;3.70;;;;;;;28.98;44.01;100794.79;108231;1278;21991;-68
2023/08/18 04:58:39;;;;;;;8.60;3.80;;;;;;;29.12;43.84;100794.73;108228;1277;21984;-70
2023/08/18 05:01:04;;;;;;;8.50;3.70;;;;;;;29.25;43.69;100799.19;108205;1283;21984;-58
2023/08/18 05:03:31;;;;;;;10.50;4.10;;;;;;;29.38;43.65;100801.56;108271;1273;21981;-69
2023/08/18 05:06:02;;;;;;;8.10;4.10;;;;;;;29.48;43.58;100800.34;108230;1277;21980;-57
2023/08/18 05:08:28;;;;;;;7.80;3.90;;;;;;;29.61;43.35;100801.39;108195;1284;21963;-58
2023/08/18 05:10:57;;;;;;;8.30;3.70;;;;;;;29.74;43.09;100803.90;108236;1282;21992;-57
2023/08/18 05:13:23;;;;;;;6.00;3.60;;;;;;;29.86;43.13;100805.45;108222;1280;22026;-70
2023/08/18 05:15:49;;;;;;;6.70;4.10;;;;;;;29.98;43.01;100805.52;108213;1283;22028;-71
2023/08/18 05:18:14;;;;;;;11.10;4.30;;;;;;;30.09;42.86;100805.46;108297;1278;21986;-70
2023/08/18 05:20:40;;;;;;;6.90;3.90;;;;;;;30.18;42.88;100805.38;108226;1283;22000;-70
2023/08/18 05:23:06;;;;;;;8.00;4.40;;;;;;;30.29;42.67;100803.86;108228;1278;21994;-71
2023/08/18 05:25:31;;;;;;;8.60;4.70;;;;;;;30.43;42.40;100804.65;108292;1281;21986;-59
2023/08/18 05:27:57;;;;;;;8.10;4.20;;;;;;;30.57;42.41;100802.99;108219;1278;21992;-71
2023/08/18 05:30:23;;;;;;;7.50;4.10;;;;;;;30.69;42.30;100808.27;108222;1283;21991;-69
2023/08/18 05:32:48;;;;;;;8.10;4.10;;;;;;;30.83;42.13;100807.00;108198;1284;21992;-58
2023/08/18 05:35:14;;;;;;;6.20;4.00;;;;;;;30.97;41.93;100809.77;108225;1275;22004;-69
2023/08/18 05:37:40;;;;;;;7.60;4.20;;;;;;;31.08;41.78;100807.08;108211;1283;21995;-58
2023/08/18 05:40:06;;;;;;;9.50;3.60;;;;;;;31.18;41.51;100806.15;108212;1284;21986;-70
2023/08/18 05:42:32;;;;;;;5.80;3.90;;;;;;;31.32;41.48;100808.84;108255;1280;21996;-70
2023/08/18 05:44:58;;;;;;;8.60;4.10;;;;;;;31.48;41.24;100811.17;108173;1283;21981;-69
2023/08/18 05:47:23;;;;;;;9.80;4.20;;;;;;;31.60;40.90;100806.83;108221;1276;21996;-69
2023/08/18 05:49:49;;;;;;;6.40;3.90;;;;;;;31.70;40.80;100809.89;108199;1283;21996;-59
2023/08/18 05:52:14;;;;;;;7.50;4.10;;;;;;;31.83;40.65;100811.86;108232;1283;22456;-69
2023/08/18 05:54:40;;;;;;;7.30;3.90;;;;;;;31.97;40.54;100813.84;108192;1284;22024;-68
2023/08/18 05:57:05;;;;;;;6.50;3.60;;;;;;;32.11;40.41;100816.98;108040;1282;22021;-58
2023/08/18 05:59:32;;;;;;;8.40;4.30;;;;;;;32.26;40.22;100814.46;108191;1283;21988;-58
2023/08/18 06:01:57;;;;;;;13.60;4.90;;;;;;;32.41;40.17;100815.93;108182;1281;21983;-69
2023/08/18 06:04:23;;;;;;;7.90;4.10;;;;;;;32.61;39.93;100814.70;108174;1283;23634;-58
2023/08/18 06:06:49;;;;;;;5.60;3.60;;;;;;;32.85;39.99;100813.23;108188;1284;21987;-70
2023/08/18 06:09:14;;;;;;;8.90;4.00;;;;;;;33.10;39.57;100814.74;108183;1284;23610;-58
2023/08/18 06:11:41;;;;;;;10.40;4.20;;;;;;;33.28;39.30;100812.24;108185;1283;21983;-58
2023/08/18 06:14:07;;;;;;;8.70;4.10;;;;;;;33.45;39.08;100815.06;108169;1284;22026;-58
2023/08/18 06:16:32;;;;;;;6.40;3.80;;;;;;;33.60;38.73;100818.96;108296;1283;21999;-70
2023/08/18 06:18:58;;;;;;;7.50;4.20;;;;;;;33.78;38.58;100815.90;108174;1284;21996;-58
2023/08/18 06:21:24;;;;;;;6.60;4.10;;;;;;;33.96;38.24;100814.23;108198;1284;22019;-69
2023/08/18 06:23:49;;;;;;;10.70;3.60;;;;;;;34.07;38.20;100818.93;108193;1284;21990;-58
2023/08/18 06:26:15;;;;;;;7.30;3.90;;;;;;;34.16;38.19;100817.23;108213;1274;21989;-58
2023/08/18 06:28:40;;;;;;;7.60;4.00;;;;;;;34.35;38.09;100814.79;108201;1283;22747;-58
2023/08/18 06:31:06;;;;;;;10.40;3.80;;;;;;;34.59;37.85;100816.52;108240;1284;22028;-62
2023/08/18 06:33:35;;;;;;;9.50;4.00;;;;;;;34.81;37.53;100815.73;108309;1283;21997;-69
2023/08/18 06:36:02;;;;;;;7.60;3.80;;;;;;;35.04;37.51;100810.46;108216;1284;21977;-69
2023/08/18 06:38:28;;;;;;;8.90;4.00;;;;;;;35.25;37.21;100810.06;108223;1280;22004;-68
2023/08/18 06:40:54;;;;;;;7.00;4.00;;;;;;;35.42;36.85;100812.08;108346;1280;21986;-59
2023/08/18 06:43:20;;;;;;;9.80;3.80;;;;;;;35.55;36.58;100815.71;108241;1280;22238;-70
2023/08/18 06:45:45;;;;;;;5.90;4.20;;;;;;;35.70;36.56;100813.17;108165;1284;24069;-69
2023/08/18 06:48:11;;;;;;;11.90;4.00;;;;;;;35.84;36.45;100809.23;108168;1281;22037;-59
2023/08/18 06:50:37;;;;;;;6.00;3.70;;;;;;;35.99;36.27;100815.52;108166;1284;21989;-70
2023/08/18 06:53:03;;;;;;;11.30;4.50;;;;;;;36.09;36.10;100816.27;108182;1284;22014;-59
2023/08/18 06:55:29;;;;;;;7.30;3.80;;;;;;;36.15;35.67;100820.48;108060;1279;22451;-59
2023/08/18 06:57:54;;;;;;;8.30;3.60;;;;;;;36.23;35.72;100821.42;108208;1280;22733;-60
2023/08/18 07:00:20;;;;;;;6.60;3.70;;;;;;;36.43;35.57;100823.19;108206;1284;21995;-60
2023/08/18 07:02:46;;;;;;;11.50;3.70;;;;;;;36.69;35.25;100821.45;108182;1284;22024;-69
2023/08/18 07:05:12;;;;;;;9.00;3.40;;;;;;;36.86;34.77;100822.69;108181;1284;22027;-67
2023/08/18 07:07:38;;;;;;;8.20;4.10;;;;;;;37.00;34.88;100820.52;108163;1283;21994;-58
2023/08/18 07:10:05;;;;;;;5.30;3.80;;;;;;;37.19;34.77;100822.23;108298;1283;22000;-69
2023/08/18 07:12:33;;;;;;;5.30;3.70;;;;;;;37.31;34.41;100819.66;108114;1282;23097;-68
2023/08/18 07:14:58;;;;;;;9.00;3.40;;;;;;;37.36;34.22;100816.33;108225;1283;21972;-69
2023/08/18 07:17:24;;;;;;;7.40;3.80;;;;;;;37.41;34.07;100817.77;108221;1284;22179;-69
2023/08/18 07:19:49;;;;;;;8.30;3.70;;;;;;;37.49;33.78;100810.75;108211;1284;22002;-59
2023/08/18 07:25:11;;;;;;;8.40;3.80;;;;;;;37.37;34.41;100808.59;107366;1292;549690;-58
2023/08/18 07:27:37;;;;;;;5.60;3.90;;;;;;;37.97;33.46;100803.45;107773;1290;21995;-68
2023/08/18 07:30:04;;;;;;;6.70;3.80;;;;;;;38.07;33.29;100801.48;107601;1290;21988;-59
2023/08/18 07:32:30;;;;;;;7.40;3.80;;;;;;;38.23;33.14;100799.05;107646;1295;21995;-58
2023/08/18 07:34:56;;;;;;;5.80;3.70;;;;;;;38.33;32.87;100797.61;107668;1287;23066;-58
2023/08/18 07:37:21;;;;;;;7.40;3.40;;;;;;;38.52;32.77;100796.94;107738;1289;147916;-59
2023/08/18 07:39:47;;;;;;;6.00;3.70;;;;;;;38.65;32.32;100798.15;107824;1284;22000;-71
2023/08/18 07:42:13;;;;;;;4.80;3.10;;;;;;;38.66;32.16;100802.68;107748;1289;23675;-71
2023/08/18 07:44:39;;;;;;;8.10;3.10;;;;;;;38.70;31.85;100801.66;107800;1291;23718;-60
2023/08/18 07:47:04;;;;;;;6.40;3.20;;;;;;;38.82;31.67;100802.83;107826;1291;22034;-59
2023/08/18 07:49:30;;;;;;;6.10;3.30;;;;;;;39.00;31.78;100806.65;107787;1291;23640;-61
2023/08/18 07:51:56;;;;;;;5.50;2.90;;;;;;;39.15;31.39;100808.10;107817;1277;23653;-59
2023/08/18 07:54:23;;;;;;;6.00;3.00;;;;;;;39.27;31.45;100804.95;107859;1290;23623;-59
2023/08/18 07:56:49;;;;;;;6.10;3.20;;;;;;;39.42;31.35;100801.50;107819;1283;21989;-62
2023/08/18 07:59:15;;;;;;;6.00;3.30;;;;;;;39.71;31.32;100801.30;107886;1290;22722;-60
2023/08/18 08:01:41;;;;;;;8.80;3.30;;;;;;;40.04;30.89;100802.04;107843;1290;23631;-61
2023/08/18 08:04:06;;;;;;;6.40;3.20;;;;;;;40.35;30.52;100804.44;107907;1290;21990;-60
2023/08/18 08:06:32;;;;;;;6.80;3.20;;;;;;;40.44;30.33;100806.89;107842;1281;21988;-60
2023/08/18 08:08:58;;;;;;;7.50;3.00;;;;;;;40.53;30.55;100806.23;107866;1284;21989;-60
2023/08/18 08:11:24;;;;;;;6.00;3.00;;;;;;;40.77;30.31;100808.08;107864;1287;21996;-62
2023/08/18 08:13:49;;;;;;;6.50;3.50;;;;;;;40.94;29.94;100807.64;107790;1290;22024;-69
2023/08/18 08:16:15;;;;;;;4.60;3.00;;;;;;;41.10;29.75;100803.59;107787;1287;22028;-61
2023/08/18 08:18:41;;;;;;;8.00;3.20;;;;;;;41.29;29.60;100807.25;107962;1284;22000;-69
2023/08/18 08:21:06;;;;;;;14.60;3.80;;;;;;;41.44;29.53;100804.91;107882;1284;22000;-59
2023/08/18 08:23:32;;;;;;;11.40;4.30;;;;;;;41.67;29.52;100800.99;107925;1284;21997;-59
2023/08/18 08:25:58;;;;;;;6.80;3.00;;;;;;;41.87;29.13;100800.73;107998;1283;21990;-70
2023/08/18 08:28:24;;;;;;;8.60;3.30;;;;;;;42.02;28.90;100799.78;107761;1289;23809;-59
2023/08/18 08:30:49;;;;;;;6.40;3.10;;;;;;;42.04;28.74;100802.06;107983;1281;22080;-70
2023/08/18 08:33:15;;;;;;;4.10;3.10;;;;;;;41.98;28.27;100806.20;107938;1287;22005;-58
2023/08/18 08:35:40;;;;;;;8.40;3.20;;;;;;;41.87;28.32;100805.16;107852;1284;22049;-71
2023/08/18 08:38:06;;;;;;;8.70;3.30;;;;;;;41.80;28.19;100802.67;107832;1284;21989;-59
2023/08/18 08:40:32;;;;;;;5.80;2.90;;;;;;;41.72;27.88;100809.11;107998;1289;21986;-61
2023/08/18 08:42:58;;;;;;;4.90;3.00;;;;;;;41.59;28.02;100810.02;107969;1283;21985;-59
2023/08/18 08:45:23;;;;;;;5.70;2.90;;;;;;;41.39;27.91;100805.98;108118;1283;21999;-69
2023/08/18 08:47:53;;;;;;;5.80;2.60;;;;;;;41.22;28.19;100801.88;107823;1284;23924;-59
2023/08/18 08:50:19;;;;;;;8.10;3.00;;;;;;;41.25;28.24;100802.72;107788;1287;21996;-68
2023/08/18 08:52:45;;;;;;;5.50;3.40;;;;;;;41.42;28.44;100803.64;107996;1286;21989;-60
2023/08/18 08:55:11;;;;;;;6.10;2.50;;;;;;;41.53;28.14;100802.92;107803;1287;21989;-59
2023/08/18 08:57:36;;;;;;;5.90;3.00;;;;;;;41.55;27.81;100799.91;108714;1290;22460;-68
2023/08/18 09:00:04;;;;;;;6.60;2.70;;;;;;;41.48;27.48;100799.19;107845;1290;21968;-66
2023/08/18 09:02:29;;;;;;;4.50;2.60;;;;;;;41.44;27.45;100802.63;107931;1284;21990;-60
2023/08/18 09:05:00;;;;;;;3.60;2.50;;;;;;;41.53;27.65;100800.88;107799;1290;21985;-70
2023/08/18 09:07:28;;;;;;;4.60;2.60;;;;;;;41.79;27.45;100796.54;107793;1290;24071;-72
2023/08/18 09:09:54;;;;;;;4.10;2.40;;;;;;;41.93;27.18;100803.23;107770;1284;22061;-68
2023/08/18 09:12:20;;;;;;;4.70;2.90;;;;;;;41.95;27.19;100800.63;107752;1290;21994;-61
2023/08/18 09:14:46;;;;;;;6.90;2.80;;;;;;;41.92;27.11;100797.12;107932;1290;22032;-59
2023/08/18 09:17:12;;;;;;;4.80;3.00;;;;;;;41.78;26.94;100797.36;107811;1286;22022;-59
2023/08/18 09:19:37;;;;;;;5.50;2.80;;;;;;;41.51;27.13;100800.08;107727;1281;21946;-60
2023/08/18 09:22:04;;;;;;;6.90;2.80;;;;;;;41.43;27.36;100800.55;107734;1279;21994;-69
2023/08/18 09:24:31;;;;;;;4.40;3.00;;;;;;;41.42;27.21;100800.16;107725;1284;21999;-59
2023/08/18 09:27:05;;;;;;;3.90;2.90;;;;;;;41.48;27.24;100799.52;107741;1290;23628;-68
2023/08/18 09:29:32;;;;;;;4.90;2.60;;;;;;;41.63;27.22;100793.21;109491;1281;21991;-62
2023/08/18 09:31:58;;;;;;;5.40;2.90;;;;;;;41.83;26.84;100793.95;107925;1280;22033;-58
2023/08/18 09:34:24;;;;;;;6.20;2.70;;;;;;;41.95;26.91;100797.11;107831;1276;21988;-58
2023/08/18 09:36:56;;;;;;;3.10;2.60;;;;;;;42.07;26.68;100795.10;107903;1289;22004;-69
2023/08/18 09:39:22;;;;;;;6.50;2.60;;;;;;;42.26;26.77;100793.27;107900;1287;23573;-68
2023/08/18 09:41:51;;;;;;;8.50;3.20;;;;;;;42.57;26.55;100791.46;107936;1278;22022;-59
2023/08/18 09:44:17;;;;;;;4.50;2.60;;;;;;;42.87;26.01;100785.66;108027;1289;22002;-67
2023/08/18 09:46:47;;;;;;;4.30;2.60;;;;;;;43.14;25.76;100783.89;107842;1289;21990;-68
2023/08/18 09:49:15;;;;;;;4.10;2.80;;;;;;;43.36;25.23;100779.37;107916;1278;24319;-68
2023/08/18 09:51:41;;;;;;;6.40;2.30;;;;;;;43.58;25.73;100781.96;107880;1288;22183;-59
2023/08/18 09:54:06;;;;;;;4.30;2.70;;;;;;;43.96;25.65;100788.48;107760;1287;25585;-59
2023/08/18 09:56:32;;;;;;;5.80;2.40;;;;;;;44.24;25.66;100785.36;107718;1289;22001;-59
2023/08/18 09:59:20;;;;;;;3.90;2.90;;;;;;;44.64;25.48;100788.48;107775;1289;21989;-59
2023/08/18 10:01:47;;;;;;;6.40;2.90;;;;;;;45.00;25.04;100786.80;107889;1289;21984;-69
2023/08/18 10:04:13;;;;;;;6.50;3.00;;;;;;;45.21;24.81;100792.61;107841;1287;21987;-60
2023/08/18 10:06:39;;;;;;;5.80;2.40;;;;;;;45.45;24.69;100793.19;107699;1283;22176;-68
2023/08/18 10:09:05;;;;;;;6.00;2.90;;;;;;;45.69;24.41;100792.02;107723;1289;21987;-59
2023/08/18 10:11:32;;;;;;;4.30;2.60;;;;;;;45.94;24.36;100791.75;107910;1289;22001;-68
2023/08/18 10:13:57;;;;;;;5.00;2.50;;;;;;;46.31;24.17;100792.77;107877;1287;21998;-60
2023/08/18 10:16:23;;;;;;;5.10;2.80;;;;;;;46.48;23.53;100788.95;107891;1289;21986;-59
2023/08/18 10:18:55;;;;;;;10.50;2.80;;;;;;;46.38;22.82;100790.14;107775;1289;21999;-72
2023/08/18 10:21:26;;;;;;;5.70;2.90;;;;;;;46.44;23.36;100790.10;107859;1278;22030;-59
2023/08/18 10:23:52;;;;;;;2.70;2.40;;;;;;;46.68;23.01;100792.81;107900;1284;21996;-69
2023/08/18 10:26:18;;;;;;;6.40;2.70;;;;;;;46.74;22.83;100789.76;107957;1285;21984;-60
2023/08/18 10:28:45;;;;;;;6.10;2.80;;;;;;;46.81;22.78;100791.22;107975;1287;21987;-69
2023/08/18 10:31:13;;;;;;;5.60;2.80;;;;;;;46.78;22.49;100787.82;108110;1281;21991;-60
2023/08/18 10:33:43;;;;;;;3.30;2.60;;;;;;;46.80;22.18;100789.92;107868;1289;22007;-60
2023/08/18 10:36:09;;;;;;;5.90;2.30;;;;;;;46.88;21.99;100789.67;107895;1289;21993;-58
2023/08/18 10:38:39;;;;;;;14.80;3.50;;;;;;;47.00;22.15;100788.44;107996;1287;21992;-61
2023/08/18 10:41:04;;;;;;;4.70;2.40;;;;;;;47.06;22.18;100787.48;107977;1289;21999;-69
2023/08/18 10:43:30;;;;;;;5.70;2.80;;;;;;;47.32;22.28;100790.18;107993;1289;21996;-59
2023/08/18 10:45:59;;;;;;;5.90;2.80;;;;;;;47.54;21.98;100787.36;108063;1289;23205;-58
2023/08/18 10:48:29;;;;;;;7.50;2.90;;;;;;;47.58;21.83;100785.88;107893;1278;21996;-67
2023/08/18 10:50:55;;;;;;;6.60;3.10;;;;;;;47.76;22.12;100780.46;107920;1283;22033;-68
2023/08/18 10:53:20;;;;;;;4.20;2.60;;;;;;;48.07;21.97;100782.41;107728;1287;22128;-68
2023/08/18 10:55:46;;;;;;;2.90;2.20;;;;;;;48.34;21.95;100783.11;107849;1278;21988;-58
2023/08/18 10:58:14;;;;;;;5.10;2.50;;;;;;;48.56;21.51;100777.48;107907;1277;21987;-69
2023/08/18 11:00:40;;;;;;;5.40;2.80;;;;;;;48.60;21.38;100780.96;107849;1289;21998;-59
2023/08/18 11:03:07;;;;;;;5.80;2.90;;;;;;;48.67;21.55;100775.41;107825;1284;21995;-59
2023/08/18 11:05:33;;;;;;;4.90;2.50;;;;;;;48.80;21.33;100771.02;107883;1284;21991;-68
2023/08/18 11:08:00;;;;;;;4.00;2.60;;;;;;;48.95;21.45;100774.10;107915;1287;22024;-58
2023/08/18 11:10:25;;;;;;;5.10;2.40;;;;;;;49.11;21.27;100777.14;107870;1286;22000;-59
2023/08/18 11:12:52;;;;;;;4.20;2.40;;;;;;;49.20;20.72;100774.81;107903;1280;23633;-59
2023/08/18 11:15:19;;;;;;;5.80;2.90;;;;;;;48.90;19.55;100767.13;107884;1284;21989;-59